createdAt,value
2022-11-19T00:00:13.379Z,1.42
2022-11-19T00:01:15.023Z,1.35
2022-11-19T00:02:11.729Z,1.93
2022-11-19T00:03:08.432Z,2.22
2022-11-19T00:04:07.736Z,0.90
2022-11-19T00:05:04.675Z,1.30
2022-11-19T00:06:19.867Z,2.40
2022-11-19T00:07:16.608Z,9.50
2022-11-19T00:08:18.799Z,8.25
2022-11-19T00:09:15.525Z,2.65
2022-11-19T00:10:12.127Z,4.60
2022-11-19T00:11:14.583Z,3.28
2022-11-19T00:12:29.601Z,2.22
2022-11-19T00:13:26.208Z,4.97
2022-11-19T00:14:23.802Z,4.93
2022-11-19T00:15:20.853Z,2.92
2022-11-19T00:16:17.473Z,2.80
2022-11-19T00:17:14.109Z,2.60
2022-11-19T00:18:10.690Z,5.00
2022-11-19T00:19:07.774Z,6.00
2022-11-19T00:20:04.664Z,1.77
2022-11-19T00:21:19.548Z,0.60
2022-11-19T00:22:16.101Z,13.82
2022-11-19T00:23:12.703Z,11.95
2022-11-19T00:24:10.493Z,5.20
2022-11-19T00:25:07.820Z,2.60
2022-11-19T00:26:14.979Z,2.90
2022-11-19T00:27:11.663Z,2.53
2022-11-19T00:28:08.830Z,2.22
2022-11-19T00:29:05.448Z,3.13
2022-11-19T00:30:05.539Z,3.15
2022-11-19T00:31:10.844Z,1.60
2022-11-19T00:32:07.518Z,1.67
2022-11-19T00:33:04.116Z,4.68
2022-11-19T00:34:00.683Z,3.75
2022-11-19T00:34:57.512Z,2.55
2022-11-19T00:35:56.582Z,3.05
2022-11-19T00:36:53.200Z,2.03
2022-11-19T00:37:49.948Z,1.30
2022-11-19T00:38:46.588Z,1.70
2022-11-19T00:39:43.187Z,6.15
2022-11-19T00:40:39.791Z,3.17
2022-11-19T00:41:36.327Z,1.10
2022-11-19T00:42:33.030Z,1.20
2022-11-19T00:43:48.376Z,0.70
2022-11-19T00:44:45.290Z,0.65
2022-11-19T00:45:44.554Z,0.55
2022-11-19T00:46:41.222Z,0.70
2022-11-19T00:47:37.797Z,0.57
2022-11-19T00:48:34.470Z,0.73
2022-11-19T00:49:31.057Z,1.20
2022-11-19T00:50:27.675Z,0.95
2022-11-19T00:51:26.832Z,0.85
2022-11-19T00:52:23.470Z,1.48
2022-11-19T00:53:20.042Z,3.70
2022-11-19T00:54:16.749Z,4.20
2022-11-19T00:55:13.348Z,5.90
2022-11-19T00:56:12.363Z,5.75
2022-11-19T00:57:09.007Z,3.72
2022-11-19T00:58:05.583Z,2.70
2022-11-19T00:59:02.231Z,4.55
2022-11-19T00:59:58.880Z,4.38
2022-11-19T01:00:55.927Z,3.20
2022-11-19T01:01:52.658Z,2.53
2022-11-19T01:02:49.241Z,2.00
2022-11-19T01:03:46.100Z,1.38
2022-11-19T01:04:42.687Z,1.20
2022-11-19T01:05:39.291Z,3.50
2022-11-19T01:06:35.868Z,2.72
2022-11-19T01:07:32.501Z,2.42
2022-11-19T01:08:29.443Z,6.65
2022-11-19T01:09:27.243Z,4.03
2022-11-19T01:10:23.870Z,3.10
2022-11-19T01:11:23.586Z,3.17
2022-11-19T01:12:20.138Z,2.55
2022-11-19T01:13:35.095Z,1.50
2022-11-19T01:14:31.667Z,1.30
2022-11-19T01:15:28.268Z,0.85
2022-11-19T01:16:36.760Z,2.35
2022-11-19T01:17:33.342Z,1.02
2022-11-19T01:18:30.376Z,1.33
2022-11-19T01:19:26.992Z,4.13
2022-11-19T01:20:23.719Z,1.58
2022-11-19T01:21:22.422Z,1.77
2022-11-19T01:22:19.125Z,0.82
2022-11-19T01:23:15.751Z,2.72
2022-11-19T01:24:12.339Z,1.10
2022-11-19T01:25:09.856Z,2.85
2022-11-19T01:26:06.827Z,4.85
2022-11-19T01:27:03.615Z,7.72
2022-11-19T01:28:00.260Z,24.48
2022-11-19T01:28:57.353Z,13.60
2022-11-19T01:29:53.932Z,20.90
2022-11-19T01:30:50.710Z,12.98
2022-11-19T01:31:47.380Z,7.93
2022-11-19T01:32:43.963Z,5.78
2022-11-19T01:33:41.192Z,9.88
2022-11-19T01:34:37.749Z,6.68
2022-11-19T01:35:34.886Z,2.13
2022-11-19T01:36:31.577Z,2.60
2022-11-19T01:37:28.148Z,4.10
2022-11-19T01:38:24.787Z,6.85
2022-11-19T01:39:21.728Z,7.82
2022-11-19T01:40:18.559Z,3.42
2022-11-19T01:41:15.125Z,2.55
2022-11-19T01:42:46.757Z,5.45
2022-11-19T01:43:50.589Z,3.97
2022-11-19T01:45:01.230Z,2.75
2022-11-19T01:45:57.799Z,4.53
2022-11-19T01:46:54.369Z,4.47
2022-11-19T01:47:53.866Z,4.78
2022-11-19T01:49:02.534Z,1.75
2022-11-19T01:49:59.849Z,5.00
2022-11-19T01:51:00.890Z,2.33
2022-11-19T01:52:01.586Z,5.95
2022-11-19T01:52:58.584Z,1.35
2022-11-19T01:53:59.211Z,1.50
2022-11-19T01:54:56.249Z,1.40
2022-11-19T01:55:53.629Z,2.85
2022-11-19T01:56:50.193Z,3.72
2022-11-19T01:57:56.606Z,1.00
2022-11-19T01:59:00.153Z,1.13
2022-11-19T01:59:56.797Z,0.82
2022-11-19T02:00:53.436Z,1.27
2022-11-19T02:01:50.158Z,0.98
2022-11-19T02:02:46.879Z,0.82
2022-11-19T02:03:43.781Z,1.77
2022-11-19T02:04:40.887Z,4.07
2022-11-19T02:05:37.996Z,1.88
2022-11-19T02:06:35.184Z,4.82
2022-11-19T02:07:35.225Z,1.23
2022-11-19T02:08:37.825Z,0.80
2022-11-19T02:09:36.956Z,1.85
2022-11-19T02:11:01.973Z,1.50
2022-11-19T02:12:43.994Z,2.15
2022-11-19T02:13:51.452Z,1.00
2022-11-19T02:15:13.746Z,1.50
2022-11-19T02:16:35.862Z,3.33
2022-11-19T02:17:56.998Z,2.58
2022-11-19T02:19:12.756Z,1.10
2022-11-19T02:20:24.614Z,0.90
2022-11-19T02:21:30.355Z,0.95
2022-11-19T02:22:42.183Z,1.30
2022-11-19T02:23:46.368Z,1.67
2022-11-19T02:25:05.578Z,0.88
2022-11-19T02:26:26.430Z,0.77
2022-11-19T02:27:46.197Z,1.05
2022-11-19T02:29:15.926Z,0.93
2022-11-19T02:30:16.702Z,0.68
2022-11-19T02:31:39.517Z,1.17
2022-11-19T02:32:46.443Z,1.33
2022-11-19T02:34:03.209Z,1.25
2022-11-19T02:35:16.199Z,3.03
2022-11-19T02:36:21.705Z,0.60
2022-11-19T02:37:30.413Z,1.27
2022-11-19T02:38:45.583Z,2.45
2022-11-19T02:39:53.140Z,0.70
2022-11-19T02:40:58.887Z,2.45
2022-11-19T02:42:30.967Z,1.25
2022-11-19T02:43:40.368Z,0.73
2022-11-19T02:44:58.837Z,3.17
2022-11-19T02:46:01.483Z,1.35
2022-11-19T02:47:00.527Z,0.90
2022-11-19T02:48:03.098Z,1.20
2022-11-19T02:49:00.085Z,0.70
2022-11-19T02:50:03.194Z,2.75
2022-11-19T02:51:02.725Z,1.80
2022-11-19T02:52:00.657Z,1.67
2022-11-19T02:52:58.034Z,1.30
2022-11-19T02:53:55.251Z,0.80
2022-11-19T02:54:51.919Z,3.28
2022-11-19T02:56:06.732Z,0.95
2022-11-19T02:57:03.740Z,0.88
2022-11-19T02:58:09.112Z,0.77
2022-11-19T02:59:24.565Z,0.73
2022-11-19T03:00:40.879Z,0.50
2022-11-19T03:02:00.890Z,1.40
2022-11-19T03:03:32.923Z,3.80
2022-11-19T03:04:30.819Z,2.65
2022-11-19T03:05:32.073Z,1.92
2022-11-19T03:06:29.551Z,1.67
2022-11-19T03:07:26.190Z,1.55
2022-11-19T03:08:23.546Z,1.70
2022-11-19T03:09:21.773Z,8.20
2022-11-19T03:10:22.942Z,1.00
2022-11-19T03:11:26.589Z,1.10
2022-11-19T03:12:39.305Z,1.13
2022-11-19T03:14:19.878Z,3.47
2022-11-19T03:15:41.121Z,1.50
2022-11-19T03:16:57.947Z,2.20
2022-11-19T03:18:03.036Z,2.35
2022-11-19T03:19:07.911Z,2.47
2022-11-19T03:20:34.043Z,3.35
2022-11-19T03:21:39.264Z,2.65
2022-11-19T03:23:19.472Z,1.13
2022-11-19T03:24:27.689Z,2.60
2022-11-19T03:25:34.980Z,2.42
2022-11-19T03:26:39.688Z,3.35
2022-11-19T03:27:43.564Z,1.33
2022-11-19T03:28:40.819Z,4.47
2022-11-19T03:29:43.041Z,2.72
2022-11-19T03:30:43.180Z,1.67
2022-11-19T03:31:45.652Z,1.35
2022-11-19T03:33:45.814Z,3.35
2022-11-19T03:34:45.952Z,1.50
2022-11-19T03:35:48.712Z,1.02
2022-11-19T03:36:47.888Z,1.48
2022-11-19T03:37:49.855Z,3.55
2022-11-19T03:38:52.446Z,3.65
2022-11-19T03:39:52.421Z,1.42
2022-11-19T03:40:50.605Z,2.70
2022-11-19T03:41:50.750Z,4.63
2022-11-19T03:42:51.320Z,3.00
2022-11-19T03:43:54.187Z,1.38
2022-11-19T03:44:55.524Z,4.10
2022-11-19T03:45:54.694Z,3.03
2022-11-19T03:46:55.788Z,1.42
2022-11-19T03:47:55.299Z,0.75
2022-11-19T03:48:55.424Z,2.50
2022-11-19T03:50:02.880Z,0.75
2022-11-19T03:51:10.194Z,1.02
2022-11-19T03:52:19.595Z,3.60
2022-11-19T03:53:17.824Z,1.45
2022-11-19T03:54:15.101Z,1.88
2022-11-19T03:55:11.996Z,4.63
2022-11-19T03:56:11.996Z,3.22
2022-11-19T03:57:11.855Z,1.15
2022-11-19T03:58:10.950Z,1.58
2022-11-19T03:59:10.349Z,2.25
2022-11-19T04:00:07.647Z,1.58
2022-11-19T04:01:04.265Z,0.90
2022-11-19T04:02:07.666Z,1.75
2022-11-19T04:03:04.907Z,2.72
2022-11-19T04:04:19.762Z,3.25
2022-11-19T04:05:16.509Z,2.53
2022-11-19T04:06:13.152Z,2.90
2022-11-19T04:07:14.236Z,2.85
2022-11-19T04:08:11.482Z,4.05
2022-11-19T04:09:08.053Z,1.17
2022-11-19T04:10:05.080Z,4.32
2022-11-19T04:11:57.093Z,2.03
2022-11-19T04:12:53.719Z,3.72
2022-11-19T04:13:50.314Z,2.72
2022-11-19T04:14:47.743Z,1.30
2022-11-19T04:15:44.399Z,3.58
2022-11-19T04:16:41.049Z,4.53
2022-11-19T04:17:37.845Z,1.20
2022-11-19T04:18:34.604Z,3.25
2022-11-19T04:19:31.324Z,2.75
2022-11-19T04:20:27.974Z,2.42
2022-11-19T04:21:24.570Z,1.63
2022-11-19T04:22:21.162Z,2.95
2022-11-19T04:23:17.793Z,1.40
2022-11-19T04:24:14.928Z,2.35
2022-11-19T04:25:11.560Z,2.03
2022-11-19T04:26:08.176Z,3.30
2022-11-19T04:27:04.749Z,5.38
2022-11-19T04:28:01.419Z,1.95
2022-11-19T04:28:58.044Z,1.55
2022-11-19T04:29:54.713Z,1.83
2022-11-19T04:30:51.265Z,1.52
2022-11-19T04:31:48.010Z,4.88
2022-11-19T04:32:44.599Z,1.88
2022-11-19T04:33:41.146Z,1.55
2022-11-19T04:34:37.688Z,1.20
2022-11-19T04:35:34.339Z,1.73
2022-11-19T04:36:31.067Z,2.20
2022-11-19T04:37:27.645Z,2.40
2022-11-19T04:38:24.283Z,3.22
2022-11-19T04:39:21.322Z,4.32
2022-11-19T04:40:18.219Z,2.72
2022-11-19T04:41:14.840Z,2.55
2022-11-19T04:42:11.474Z,2.35
2022-11-19T04:43:08.085Z,1.20
2022-11-19T04:44:04.802Z,1.17
2022-11-19T04:45:01.371Z,2.25
2022-11-19T04:45:58.030Z,1.70
2022-11-19T04:46:54.719Z,1.92
2022-11-19T04:47:51.260Z,2.25
2022-11-19T04:48:47.981Z,5.43
2022-11-19T04:49:44.625Z,6.80
2022-11-19T04:50:42.583Z,3.30
2022-11-19T04:51:39.305Z,3.15
2022-11-19T04:52:40.506Z,2.83
2022-11-19T04:53:37.635Z,1.40
2022-11-19T04:54:34.315Z,2.75
2022-11-19T04:55:30.921Z,1.60
2022-11-19T04:56:27.538Z,2.15
2022-11-19T04:57:24.103Z,2.65
2022-11-19T04:58:20.640Z,2.78
2022-11-19T04:59:17.537Z,2.05
2022-11-19T05:00:15.127Z,1.40
2022-11-19T05:01:11.705Z,2.00
2022-11-19T05:02:08.293Z,3.35
2022-11-19T05:03:04.925Z,2.17
2022-11-19T05:04:01.649Z,1.73
2022-11-19T05:04:58.319Z,2.88
2022-11-19T05:05:55.063Z,1.52
2022-11-19T05:06:51.663Z,2.75
2022-11-19T05:07:48.220Z,3.72
2022-11-19T05:08:44.881Z,6.05
2022-11-19T05:09:41.481Z,1.83
2022-11-19T05:10:38.124Z,2.78
2022-11-19T05:11:34.765Z,4.10
2022-11-19T05:12:31.381Z,2.75
2022-11-19T05:13:28.031Z,3.05
2022-11-19T05:14:29.926Z,1.90
2022-11-19T05:15:26.993Z,1.60
2022-11-19T05:16:23.662Z,1.80
2022-11-19T05:17:20.278Z,3.03
2022-11-19T05:18:16.934Z,2.47
2022-11-19T05:19:13.513Z,5.75
2022-11-19T05:20:10.329Z,4.95
2022-11-19T05:21:07.279Z,4.72
2022-11-19T05:22:03.967Z,2.92
2022-11-19T05:23:00.696Z,3.50
2022-11-19T05:23:57.366Z,5.30
2022-11-19T05:24:54.031Z,4.10
2022-11-19T05:25:50.630Z,3.22
2022-11-19T05:26:47.398Z,3.97
2022-11-19T05:27:43.994Z,1.52
2022-11-19T05:28:40.604Z,1.70
2022-11-19T05:29:37.182Z,2.85
2022-11-19T05:30:33.752Z,3.05
2022-11-19T05:31:30.493Z,2.45
2022-11-19T05:32:27.235Z,6.60
2022-11-19T05:33:23.883Z,2.63
2022-11-19T05:34:20.554Z,6.00
2022-11-19T05:35:17.312Z,2.08
2022-11-19T05:36:13.972Z,2.03
2022-11-19T05:37:10.531Z,4.68
2022-11-19T05:38:08.484Z,5.18
2022-11-19T05:39:05.082Z,3.30
2022-11-19T05:40:01.914Z,2.92
2022-11-19T05:40:58.580Z,4.05
2022-11-19T05:41:55.159Z,3.15
2022-11-19T05:42:51.781Z,4.55
2022-11-19T05:43:48.447Z,2.40
2022-11-19T05:44:45.073Z,5.28
2022-11-19T05:45:41.673Z,6.40
2022-11-19T05:46:38.288Z,2.50
2022-11-19T05:47:35.001Z,2.15
2022-11-19T05:48:31.599Z,2.20
2022-11-19T05:49:28.148Z,1.92
2022-11-19T05:50:24.897Z,2.22
2022-11-19T05:51:21.578Z,6.07
2022-11-19T05:52:18.257Z,4.13
2022-11-19T05:53:14.865Z,4.35
2022-11-19T05:54:11.482Z,4.75
2022-11-19T05:55:08.145Z,3.45
2022-11-19T05:56:04.885Z,2.45
2022-11-19T05:57:01.601Z,2.38
2022-11-19T05:57:58.444Z,1.58
2022-11-19T05:58:55.042Z,1.95
2022-11-19T05:59:51.734Z,1.58
2022-11-19T06:00:48.573Z,2.35
2022-11-19T06:01:45.213Z,3.05
2022-11-19T06:02:41.892Z,3.20
2022-11-19T06:03:38.586Z,3.78
2022-11-19T06:04:36.249Z,2.80
2022-11-19T06:05:37.261Z,2.38
2022-11-19T06:06:36.755Z,2.35
2022-11-19T06:07:33.458Z,1.60
2022-11-19T06:08:30.106Z,2.80
2022-11-19T06:09:26.712Z,3.47
2022-11-19T06:10:23.451Z,2.08
2022-11-19T06:11:38.783Z,2.33
2022-11-19T06:12:35.595Z,2.70
2022-11-19T06:13:32.247Z,1.85
2022-11-19T06:14:28.894Z,2.90
2022-11-19T06:15:25.455Z,2.10
2022-11-19T06:16:22.082Z,1.52
2022-11-19T06:17:18.673Z,2.45
2022-11-19T06:18:15.379Z,2.47
2022-11-19T06:19:12.180Z,4.25
2022-11-19T06:20:11.221Z,1.95
2022-11-19T06:21:11.992Z,2.40
2022-11-19T06:22:09.936Z,4.68
2022-11-19T06:23:06.551Z,2.47
2022-11-19T06:24:03.295Z,8.30
2022-11-19T06:24:59.909Z,3.42
2022-11-19T06:25:57.285Z,2.67
2022-11-19T06:26:53.956Z,3.03
2022-11-19T06:27:50.529Z,3.95
2022-11-19T06:28:47.129Z,3.10
2022-11-19T06:29:43.912Z,1.98
2022-11-19T06:30:40.606Z,5.35
2022-11-19T06:31:37.198Z,6.78
2022-11-19T06:32:34.079Z,3.13
2022-11-19T06:33:30.651Z,7.90
2022-11-19T06:34:27.250Z,4.43
2022-11-19T06:35:23.914Z,3.80
2022-11-19T06:36:21.209Z,4.18
2022-11-19T06:37:17.889Z,1.85
2022-11-19T06:38:14.468Z,3.97
2022-11-19T06:39:11.039Z,4.50
2022-11-19T06:40:08.281Z,2.03
2022-11-19T06:41:05.202Z,3.25
2022-11-19T06:42:21.851Z,1.67
2022-11-19T06:43:18.419Z,2.15
2022-11-19T06:44:15.036Z,2.78
2022-11-19T06:45:14.448Z,4.18
2022-11-19T06:46:12.995Z,2.25
2022-11-19T06:47:09.601Z,3.35
2022-11-19T06:48:06.285Z,3.33
2022-11-19T06:49:03.834Z,5.72
2022-11-19T06:50:00.445Z,6.25
2022-11-19T06:50:57.514Z,6.47
2022-11-19T06:51:54.197Z,5.90
2022-11-19T06:52:50.849Z,4.80
2022-11-19T06:53:47.493Z,4.50
2022-11-19T06:54:44.114Z,2.60
2022-11-19T06:55:40.744Z,4.72
2022-11-19T06:56:37.345Z,2.05
2022-11-19T06:57:33.983Z,3.47
2022-11-19T06:58:31.181Z,1.88
2022-11-19T06:59:29.262Z,2.25
2022-11-19T07:00:25.818Z,2.45
2022-11-19T07:01:22.510Z,1.98
2022-11-19T07:02:21.574Z,3.90
2022-11-19T07:03:18.979Z,2.70
2022-11-19T07:04:15.612Z,2.40
2022-11-19T07:05:12.150Z,2.95
2022-11-19T07:06:08.984Z,2.70
2022-11-19T07:07:06.332Z,1.95
2022-11-19T07:08:03.544Z,2.75
2022-11-19T07:09:00.210Z,5.70
2022-11-19T07:09:56.806Z,1.52
2022-11-19T07:10:54.094Z,4.32
2022-11-19T07:11:50.674Z,2.50
2022-11-19T07:12:47.397Z,1.95
2022-11-19T07:13:59.767Z,3.67
2022-11-19T07:15:02.670Z,2.33
2022-11-19T07:16:02.997Z,3.35
2022-11-19T07:16:59.741Z,1.58
2022-11-19T07:17:56.336Z,1.65
2022-11-19T07:18:53.201Z,1.27
2022-11-19T07:19:49.838Z,1.23
2022-11-19T07:20:46.905Z,2.30
2022-11-19T07:21:43.591Z,2.55
2022-11-19T07:22:41.563Z,1.52
2022-11-19T07:23:38.146Z,1.50
2022-11-19T07:24:35.001Z,3.35
2022-11-19T07:25:31.622Z,1.42
2022-11-19T07:26:28.294Z,1.95
2022-11-19T07:27:24.912Z,1.92
2022-11-19T07:28:21.476Z,2.55
2022-11-19T07:29:18.811Z,2.25
2022-11-19T07:30:16.025Z,4.18
2022-11-19T07:31:12.794Z,3.33
2022-11-19T07:32:09.368Z,5.45
2022-11-19T07:33:05.980Z,4.47
2022-11-19T07:34:06.496Z,6.40
2022-11-19T07:35:03.345Z,5.03
2022-11-19T07:35:59.910Z,5.43
2022-11-19T07:36:56.504Z,5.55
2022-11-19T07:37:53.148Z,6.03
2022-11-19T07:38:52.293Z,8.48
2022-11-19T07:39:49.053Z,7.93
2022-11-19T07:40:53.672Z,8.35
2022-11-19T07:42:08.925Z,16.00
2022-11-19T07:43:05.465Z,14.20
2022-11-19T07:44:02.070Z,18.60
2022-11-19T07:44:58.707Z,13.35
2022-11-19T07:45:55.325Z,16.05
2022-11-19T07:46:51.996Z,13.48
2022-11-19T07:47:49.384Z,13.18
2022-11-19T07:48:46.187Z,11.50
2022-11-19T07:49:42.797Z,11.10
2022-11-19T07:50:41.050Z,10.70
2022-11-19T07:51:37.664Z,10.82
2022-11-19T07:52:34.314Z,13.80
2022-11-19T07:53:30.884Z,10.60
2022-11-19T07:54:27.549Z,10.48
2022-11-19T07:55:24.155Z,8.43
2022-11-19T07:56:21.084Z,11.05
2022-11-19T07:57:17.662Z,8.48
2022-11-19T07:58:14.717Z,8.82
2022-11-19T07:59:12.155Z,9.52
2022-11-19T08:00:09.631Z,6.70
2022-11-19T08:01:20.505Z,9.15
2022-11-19T08:02:17.198Z,4.18
2022-11-19T08:03:13.748Z,6.10
2022-11-19T08:04:10.702Z,7.22
2022-11-19T08:05:07.540Z,5.13
2022-11-19T08:06:05.911Z,5.28
2022-11-19T08:07:02.534Z,6.93
2022-11-19T08:07:59.130Z,7.38
2022-11-19T08:08:56.420Z,6.57
2022-11-19T08:09:53.034Z,7.80
2022-11-19T08:10:49.617Z,13.50
2022-11-19T08:11:46.183Z,14.48
2022-11-19T08:13:02.753Z,14.23
2022-11-19T08:14:02.718Z,15.32
2022-11-19T08:14:59.371Z,15.00
2022-11-19T08:16:03.675Z,15.82
2022-11-19T08:17:18.882Z,18.10
2022-11-19T08:18:16.237Z,22.35
2022-11-19T08:19:15.148Z,34.05
2022-11-19T08:20:12.001Z,36.00
2022-11-19T08:21:11.211Z,40.28
2022-11-19T08:22:11.132Z,37.85
2022-11-19T08:23:07.984Z,35.20
2022-11-19T08:24:07.064Z,34.67
2022-11-19T08:25:04.215Z,31.70
2022-11-19T08:26:01.196Z,31.75
2022-11-19T08:26:57.830Z,36.15
2022-11-19T08:27:54.429Z,33.10
2022-11-19T08:28:51.088Z,33.08
2022-11-19T08:29:47.704Z,33.10
2022-11-19T08:30:45.547Z,28.67
2022-11-19T08:31:43.511Z,22.48
2022-11-19T08:32:40.223Z,24.27
2022-11-19T08:33:36.852Z,20.45
2022-11-19T08:34:34.361Z,20.38
2022-11-19T08:35:30.983Z,18.27
2022-11-19T08:36:27.813Z,12.18
2022-11-19T08:37:24.453Z,9.77
2022-11-19T08:38:21.113Z,9.75
2022-11-19T08:39:17.746Z,9.70
2022-11-19T08:40:15.224Z,7.43
2022-11-19T08:41:30.087Z,9.48
2022-11-19T08:42:45.270Z,10.57
2022-11-19T08:43:42.350Z,8.02
2022-11-19T08:44:39.159Z,7.13
2022-11-19T08:45:39.447Z,7.50
2022-11-19T08:46:37.355Z,8.73
2022-11-19T08:47:33.985Z,7.05
2022-11-19T08:48:30.540Z,10.65
2022-11-19T08:49:27.304Z,7.82
2022-11-19T08:50:24.905Z,7.25
2022-11-19T08:51:21.613Z,8.50
2022-11-19T08:52:18.277Z,6.88
2022-11-19T08:53:14.984Z,5.53
2022-11-19T08:54:13.183Z,5.53
2022-11-19T08:55:10.369Z,4.60
2022-11-19T08:56:07.609Z,6.60
2022-11-19T08:57:04.755Z,4.75
2022-11-19T08:58:05.411Z,8.02
2022-11-19T08:59:03.222Z,3.22
2022-11-19T09:00:05.665Z,3.70
2022-11-19T09:01:10.842Z,5.18
2022-11-19T09:02:10.649Z,2.72
2022-11-19T09:03:07.365Z,2.75
2022-11-19T09:04:04.444Z,3.72
2022-11-19T09:05:01.290Z,5.53
2022-11-19T09:06:01.225Z,3.55
2022-11-19T09:06:58.051Z,2.38
2022-11-19T09:07:55.366Z,3.00
2022-11-19T09:08:51.994Z,4.13
2022-11-19T09:09:48.553Z,2.97
2022-11-19T09:10:45.145Z,3.30
2022-11-19T09:11:43.055Z,4.53
2022-11-19T09:12:39.811Z,2.10
2022-11-19T09:13:36.413Z,2.95
2022-11-19T09:14:33.234Z,4.90
2022-11-19T09:15:29.828Z,3.42
2022-11-19T09:16:26.730Z,3.05
2022-11-19T09:17:24.239Z,5.78
2022-11-19T09:18:20.889Z,2.53
2022-11-19T09:19:17.540Z,5.38
2022-11-19T09:20:14.320Z,4.35
2022-11-19T09:21:12.079Z,4.32
2022-11-19T09:22:08.678Z,8.00
2022-11-19T09:23:05.285Z,5.32
2022-11-19T09:24:01.850Z,4.47
2022-11-19T09:24:58.428Z,7.88
2022-11-19T09:26:16.050Z,8.63
2022-11-19T09:27:12.748Z,4.35
2022-11-19T09:28:11.280Z,4.85
2022-11-19T09:29:07.956Z,4.15
2022-11-19T09:30:06.346Z,3.53
2022-11-19T09:31:06.963Z,2.97
2022-11-19T09:32:03.888Z,2.80
2022-11-19T09:33:00.491Z,2.40
2022-11-19T09:33:57.050Z,2.80
2022-11-19T09:34:53.626Z,3.92
2022-11-19T09:35:50.248Z,5.72
2022-11-19T09:36:46.888Z,3.55
2022-11-19T09:37:43.454Z,2.13
2022-11-19T09:38:40.939Z,2.05
2022-11-19T09:39:37.734Z,2.45
2022-11-19T09:40:34.872Z,3.60
2022-11-19T09:41:47.543Z,3.13
2022-11-19T09:43:13.924Z,5.90
2022-11-19T09:44:36.283Z,2.72
2022-11-19T09:45:56.158Z,2.28
2022-11-19T09:47:30.540Z,2.58
2022-11-19T09:49:53.245Z,2.95
2022-11-19T09:51:00.413Z,2.50
2022-11-19T09:52:05.463Z,2.28
2022-11-19T09:53:15.373Z,1.60
2022-11-19T09:54:18.971Z,3.35
2022-11-19T09:55:26.677Z,3.20
2022-11-19T09:56:30.254Z,2.10
2022-11-19T09:57:42.067Z,2.08
2022-11-19T09:58:42.597Z,4.65
2022-11-19T09:59:40.588Z,5.15
2022-11-19T10:00:37.283Z,4.68
2022-11-19T10:01:35.418Z,1.98
2022-11-19T10:02:32.169Z,2.35
2022-11-19T10:03:33.450Z,3.38
2022-11-19T10:04:33.564Z,5.50
2022-11-19T10:05:59.345Z,1.75
2022-11-19T10:07:31.151Z,4.68
2022-11-19T10:08:54.719Z,4.10
2022-11-19T10:10:22.370Z,3.80
2022-11-19T10:11:53.368Z,6.60
2022-11-19T10:13:11.731Z,3.65
2022-11-19T10:14:27.260Z,2.97
2022-11-19T10:15:37.946Z,1.75
2022-11-19T10:16:53.101Z,3.15
2022-11-19T10:18:00.591Z,2.33
2022-11-19T10:19:06.206Z,2.92
2022-11-19T10:20:08.807Z,2.47
2022-11-19T10:21:43.035Z,4.00
2022-11-19T10:22:44.445Z,6.30
2022-11-19T10:23:56.046Z,2.83
2022-11-19T10:25:11.322Z,2.97
2022-11-19T10:26:16.456Z,2.88
2022-11-19T10:27:23.729Z,3.17
2022-11-19T10:28:23.205Z,3.83
2022-11-19T10:29:23.489Z,5.82
2022-11-19T10:30:23.781Z,7.35
2022-11-19T10:32:20.123Z,3.15
2022-11-19T10:33:43.630Z,2.35
2022-11-19T10:34:40.640Z,2.78
2022-11-19T10:35:41.994Z,3.45
2022-11-19T10:36:42.111Z,3.22
2022-11-19T10:37:44.756Z,3.60
2022-11-19T10:39:51.691Z,3.33
2022-11-19T10:40:57.661Z,2.92
2022-11-19T10:41:59.757Z,5.43
2022-11-19T10:43:10.414Z,7.38
2022-11-19T10:44:37.501Z,4.07
2022-11-19T10:45:34.167Z,4.95
2022-11-19T10:46:30.761Z,3.38
2022-11-19T10:47:58.191Z,5.78
2022-11-19T10:48:58.112Z,3.72
2022-11-19T10:49:55.528Z,4.18
2022-11-19T10:50:52.424Z,2.65
2022-11-19T10:51:49.031Z,3.40
2022-11-19T10:52:52.739Z,6.82
2022-11-19T10:53:51.218Z,3.75
2022-11-19T10:54:50.851Z,2.55
2022-11-19T10:55:54.498Z,6.25
2022-11-19T10:56:53.510Z,3.72
2022-11-19T10:57:59.881Z,7.57
2022-11-19T10:59:01.412Z,12.38
2022-11-19T10:59:58.613Z,20.58
2022-11-19T11:00:58.587Z,6.88
2022-11-19T11:02:03.929Z,6.32
2022-11-19T11:03:04.815Z,4.68
2022-11-19T11:04:13.833Z,4.90
2022-11-19T11:05:17.333Z,7.00
2022-11-19T11:06:13.943Z,1.95
2022-11-19T11:07:10.964Z,2.78
2022-11-19T11:08:11.418Z,7.40
2022-11-19T11:09:13.737Z,6.72
2022-11-19T11:10:28.890Z,12.88
2022-11-19T11:11:48.030Z,3.50
2022-11-19T11:13:03.070Z,2.47
2022-11-19T11:14:18.478Z,4.22
2022-11-19T11:15:18.917Z,3.88
2022-11-19T11:16:39.266Z,4.13
2022-11-19T11:17:38.559Z,4.30
2022-11-19T11:18:36.474Z,6.22
2022-11-19T11:19:33.802Z,3.20
2022-11-19T11:20:31.445Z,2.55
2022-11-19T11:21:42.966Z,3.58
2022-11-19T11:22:39.905Z,3.88
2022-11-19T11:23:48.535Z,4.15
2022-11-19T11:24:45.143Z,4.88
2022-11-19T11:25:59.323Z,4.93
2022-11-19T11:27:24.538Z,3.75
2022-11-19T11:28:23.135Z,3.83
2022-11-19T11:29:19.876Z,4.75
2022-11-19T11:30:18.168Z,3.20
2022-11-19T11:31:29.847Z,4.68
2022-11-19T11:32:30.608Z,2.42
2022-11-19T11:33:42.826Z,4.90
2022-11-19T11:34:44.229Z,6.60
2022-11-19T11:35:46.793Z,3.55
2022-11-19T11:36:45.030Z,3.55
2022-11-19T11:37:41.858Z,3.53
2022-11-19T11:38:46.863Z,3.65
2022-11-19T11:39:44.460Z,4.55
2022-11-19T11:40:41.354Z,4.38
2022-11-19T11:43:00.125Z,2.55
2022-11-19T11:44:02.640Z,4.72
2022-11-19T11:46:02.987Z,4.28
2022-11-19T11:47:10.558Z,3.28
2022-11-19T11:48:16.206Z,4.00
2022-11-19T11:49:39.064Z,2.75
2022-11-19T11:50:37.293Z,3.97
2022-11-19T11:51:36.895Z,4.75
2022-11-19T11:52:47.073Z,2.63
2022-11-19T11:53:43.651Z,2.10
2022-11-19T11:55:04.750Z,1.98
2022-11-19T11:56:02.706Z,6.15
2022-11-19T11:57:18.190Z,2.22
2022-11-19T11:58:34.614Z,3.42
2022-11-19T11:59:32.799Z,3.47
2022-11-19T12:00:38.688Z,4.05
2022-11-19T12:01:35.307Z,2.88
2022-11-19T12:02:34.840Z,3.35
2022-11-19T12:03:34.488Z,4.80
2022-11-19T12:04:35.859Z,2.58
2022-11-19T12:06:02.898Z,3.30
2022-11-19T12:07:37.992Z,3.28
2022-11-19T12:08:59.473Z,3.40
2022-11-19T12:10:19.116Z,5.43
2022-11-19T12:11:53.745Z,3.75
2022-11-19T12:13:11.735Z,4.60
2022-11-19T12:14:11.445Z,2.90
2022-11-19T12:15:34.979Z,3.15
2022-11-19T12:16:40.826Z,4.60
2022-11-19T12:18:00.727Z,2.78
2022-11-19T12:19:33.179Z,3.55
2022-11-19T12:20:42.248Z,3.53
2022-11-19T12:22:00.346Z,1.67
2022-11-19T12:23:06.058Z,5.18
2022-11-19T12:24:05.681Z,1.88
2022-11-19T12:25:20.469Z,4.13
2022-11-19T12:26:35.660Z,2.08
2022-11-19T12:28:08.507Z,2.63
2022-11-19T12:29:26.868Z,2.50
2022-11-19T12:30:29.175Z,3.65
2022-11-19T12:31:55.960Z,4.63
2022-11-19T12:33:37.123Z,3.13
2022-11-19T12:35:14.934Z,6.57
2022-11-19T12:36:21.702Z,6.22
2022-11-19T12:37:40.830Z,4.50
2022-11-19T12:38:40.118Z,2.83
2022-11-19T12:39:53.593Z,4.18
2022-11-19T12:41:19.559Z,3.72
2022-11-19T12:42:25.103Z,3.78
2022-11-19T12:43:52.156Z,3.67
2022-11-19T12:45:01.122Z,2.15
2022-11-19T12:46:23.857Z,7.22
2022-11-19T12:47:51.132Z,4.70
2022-11-19T12:48:57.612Z,3.90
2022-11-19T12:50:03.365Z,2.63
2022-11-19T12:51:18.283Z,5.13
2022-11-19T12:52:35.527Z,6.35
2022-11-19T12:53:48.856Z,2.88
2022-11-19T12:55:15.838Z,5.10
2022-11-19T12:56:31.293Z,2.65
2022-11-19T12:57:39.346Z,3.88
2022-11-19T12:58:54.635Z,3.13
2022-11-19T13:00:06.293Z,4.00
2022-11-19T13:01:11.307Z,5.43
2022-11-19T13:02:18.574Z,12.95
2022-11-19T13:03:21.616Z,6.60
2022-11-19T13:04:38.954Z,6.70
2022-11-19T13:05:46.033Z,8.23
2022-11-19T13:06:48.441Z,9.77
2022-11-19T13:08:01.650Z,8.20
2022-11-19T13:09:18.977Z,4.13
2022-11-19T13:10:24.026Z,3.33
2022-11-19T13:11:21.729Z,7.55
2022-11-19T13:12:23.739Z,2.30
2022-11-19T13:13:27.093Z,2.83
2022-11-19T13:14:32.563Z,3.40
2022-11-19T13:15:53.774Z,3.28
2022-11-19T13:16:55.157Z,3.97
2022-11-19T13:17:55.601Z,4.50
2022-11-19T13:18:56.666Z,5.95
2022-11-19T13:20:04.304Z,2.60
2022-11-19T13:21:09.098Z,3.40
2022-11-19T13:22:12.687Z,2.47
2022-11-19T13:23:17.697Z,2.85
2022-11-19T13:24:32.418Z,3.95
2022-11-19T13:25:36.509Z,3.28
2022-11-19T13:26:36.616Z,3.53
2022-11-19T13:27:33.617Z,4.50
2022-11-19T13:28:44.092Z,4.82
2022-11-19T13:29:55.955Z,3.30
2022-11-19T13:30:58.266Z,5.03
2022-11-19T13:32:10.711Z,5.80
2022-11-19T13:33:32.580Z,2.17
2022-11-19T13:34:47.456Z,3.90
2022-11-19T13:36:06.118Z,4.15
2022-11-19T13:37:12.942Z,2.75
2022-11-19T13:38:12.569Z,3.67
2022-11-19T13:39:37.088Z,5.20
2022-11-19T13:40:42.960Z,5.90
2022-11-19T13:42:04.762Z,2.58
2022-11-19T13:43:36.211Z,4.40
2022-11-19T13:44:38.646Z,4.55
2022-11-19T13:45:39.869Z,2.63
2022-11-19T13:46:47.152Z,3.72
2022-11-19T13:47:57.982Z,3.70
2022-11-19T13:49:02.675Z,3.03
2022-11-19T13:50:21.088Z,3.70
2022-11-19T13:51:30.781Z,2.28
2022-11-19T13:52:45.488Z,6.45